createdAt,value
2018-11-23T00:00:02.820Z,95795.7
2018-11-23T00:01:05.244Z,95789
2018-11-23T00:02:07.412Z,95787.1
2018-11-23T00:03:09.303Z,95785.5
2018-11-23T00:04:11.735Z,95785.4
2018-11-23T00:05:13.895Z,95786.6
2018-11-23T00:06:16.045Z,95785.5
2018-11-23T00:07:18.481Z,95790.2
2018-11-23T00:08:20.633Z,95790.8
2018-11-23T00:09:23.050Z,95792.3
2018-11-23T00:10:24.919Z,95793
2018-11-23T00:11:27.074Z,95798.2
2018-11-23T00:12:28.962Z,95792.3
2018-11-23T00:13:31.121Z,95796.5
2018-11-23T00:14:33.545Z,95795.9
2018-11-23T00:15:35.958Z,95797
2018-11-23T00:16:38.119Z,95799.1
2018-11-23T00:17:40.267Z,95799.2
2018-11-23T00:18:42.419Z,95798.9
2018-11-23T00:19:44.840Z,95801
2018-11-23T00:20:47.267Z,95798.1
2018-11-23T00:21:49.411Z,95795.7
2018-11-23T00:22:50.998Z,95799.3
2018-11-23T00:23:53.157Z,95799.2
2018-11-23T00:24:55.317Z,95796.6
2018-11-23T00:25:57.465Z,95795.9
2018-11-23T00:26:59.330Z,95798.8
2018-11-23T00:28:01.475Z,95794.7
2018-11-23T00:29:03.662Z,95798.2
2018-11-23T00:30:05.530Z,95800.6
2018-11-23T00:31:07.683Z,95799.2
2018-11-23T00:32:09.848Z,95800.1
2018-11-23T00:33:12.279Z,95798.8
2018-11-23T00:34:14.703Z,95798.9
2018-11-23T00:35:16.602Z,95801.9
2018-11-23T00:36:18.472Z,95802.6
2018-11-23T00:37:20.625Z,95803
2018-11-23T00:38:23.039Z,95804.6
2018-11-23T00:39:24.907Z,95802.8
2018-11-23T00:40:27.338Z,95804.7
2018-11-23T00:41:29.201Z,95809.8
2018-11-23T00:42:30.801Z,95812.1
2018-11-23T00:43:32.955Z,95808.8
2018-11-23T00:44:35.127Z,95809.2
2018-11-23T00:46:41.713Z,95809.5
2018-11-23T00:47:43.309Z,95808
2018-11-23T00:48:45.453Z,95808.8
2018-11-23T00:49:47.627Z,95807.6
2018-11-23T00:50:49.779Z,95804.3
2018-11-23T00:51:51.942Z,95807.2
2018-11-23T00:52:54.363Z,95803.4
2018-11-23T00:53:56.797Z,95806.1
2018-11-23T00:54:59.229Z,95801.6
2018-11-23T00:56:01.096Z,95802.4
2018-11-23T00:57:03.518Z,95801.1
2018-11-23T00:58:05.671Z,95805.3
2018-11-23T00:59:07.563Z,95802.7
2018-11-23T01:00:09.432Z,95805
2018-11-23T01:01:11.864Z,95802.9
2018-11-23T01:02:13.796Z,95801.6
2018-11-23T01:03:15.936Z,95805.9
2018-11-23T01:04:17.547Z,95801.1
2018-11-23T01:05:19.409Z,95800.2
2018-11-23T01:06:21.313Z,95803.2
2018-11-23T01:07:23.452Z,95798.6
2018-11-23T01:08:25.064Z,95801.2
2018-11-23T01:09:27.477Z,95801.5
2018-11-23T01:10:29.898Z,95801.8
2018-11-23T01:11:31.787Z,95804.7
2018-11-23T01:12:33.675Z,95801.4
2018-11-23T01:13:35.829Z,95800.8
2018-11-23T01:14:38.259Z,95803.1
2018-11-23T01:15:40.691Z,95800.9
2018-11-23T01:16:42.844Z,95796.8
2018-11-23T01:17:44.996Z,95796
2018-11-23T01:18:47.124Z,95796.3
2018-11-23T01:19:48.742Z,95795.1
2018-11-23T01:20:50.900Z,95795.3
2018-11-23T01:21:52.767Z,95794.1
2018-11-23T01:22:54.647Z,95792.1
2018-11-23T01:23:56.539Z,95787.9
2018-11-23T01:24:58.428Z,95789.6
2018-11-23T01:26:00.579Z,95791.2
2018-11-23T01:27:02.438Z,95792.1
2018-11-23T01:28:04.865Z,95793.8
2018-11-23T01:29:07.301Z,95792
2018-11-23T01:30:08.890Z,95789.7
2018-11-23T01:31:11.047Z,95791.7
2018-11-23T01:32:13.477Z,95792
2018-11-23T01:33:15.629Z,95793.3
2018-11-23T01:34:18.073Z,95791
2018-11-23T01:35:20.511Z,95793.5
2018-11-23T01:36:22.959Z,95795.9
2018-11-23T01:37:25.111Z,95794.4
2018-11-23T01:38:27.536Z,95792
2018-11-23T01:39:29.709Z,95794.3
2018-11-23T01:40:31.850Z,95789
2018-11-23T01:41:33.997Z,95788.3
2018-11-23T01:42:35.868Z,95787.8
2018-11-23T01:43:38.006Z,95790.8
2018-11-23T01:44:40.437Z,95786.2
2018-11-23T01:45:42.609Z,95784.3
2018-11-23T01:46:45.039Z,95786
2018-11-23T01:47:46.916Z,95788.7
2018-11-23T01:48:48.790Z,95785.8
2018-11-23T01:49:50.949Z,95789.1
2018-11-23T01:50:53.105Z,95790.4
2018-11-23T01:51:55.280Z,95790.8
2018-11-23T01:52:57.140Z,95788.2
2018-11-23T01:53:59.565Z,95790
2018-11-23T01:55:01.715Z,95792.7
2018-11-23T01:56:03.593Z,95790.6
2018-11-23T01:57:05.739Z,95792.4
2018-11-23T01:58:07.609Z,95791.9
2018-11-23T01:59:09.754Z,95790.8
2018-11-23T02:00:11.625Z,95788.6
2018-11-23T02:01:13.796Z,95793.4
2018-11-23T02:02:16.237Z,95796.6
2018-11-23T02:03:18.117Z,95796.3
2018-11-23T02:04:20.269Z,95797.1
2018-11-23T02:05:22.718Z,95799.1
2018-11-23T02:06:24.606Z,95800
2018-11-23T02:07:26.769Z,95800.9
2018-11-23T02:08:28.353Z,95796.5
2018-11-23T02:09:30.488Z,95796.3
2018-11-23T02:10:32.647Z,95791.8
2018-11-23T02:11:35.079Z,95794
2018-11-23T02:12:37.498Z,95786.5
2018-11-23T02:13:39.359Z,95783.6
2018-11-23T02:14:41.509Z,95784
2018-11-23T02:15:43.119Z,95784.5
2018-11-23T02:16:44.998Z,95784.3
2018-11-23T02:17:46.881Z,95787.6
2018-11-23T02:18:48.764Z,95786.8
2018-11-23T02:19:50.920Z,95788
2018-11-23T02:20:53.090Z,95790.1
2018-11-23T02:21:55.543Z,95789.4
2018-11-23T02:22:57.970Z,95790.5
2018-11-23T02:24:00.125Z,95791.9
2018-11-23T02:25:02.268Z,95793.1
2018-11-23T02:26:04.131Z,95792.2
2018-11-23T02:27:06.294Z,95797.1
2018-11-23T02:28:08.718Z,95795.5
2018-11-23T02:29:11.149Z,95796.2
2018-11-23T02:30:13.566Z,95795.3
2018-11-23T02:31:15.453Z,95796.8
2018-11-23T02:32:17.878Z,95801.1
2018-11-23T02:33:19.466Z,95795.1
2018-11-23T02:34:21.623Z,95799.7
2018-11-23T02:35:23.755Z,95797.6
2018-11-23T02:36:26.174Z,95797.4
2018-11-23T02:37:28.330Z,95797.2
2018-11-23T02:38:30.222Z,95800.7
2018-11-23T02:39:32.660Z,95796.7
2018-11-23T02:40:34.809Z,95797.6
2018-11-23T02:41:36.705Z,95800.1
2018-11-23T02:42:38.883Z,95802.9
2018-11-23T02:43:41.298Z,95802.4
2018-11-23T02:44:43.727Z,95798.2
2018-11-23T02:45:45.610Z,95800
2018-11-23T02:46:47.490Z,95795.6
2018-11-23T02:47:49.387Z,95798.4
2018-11-23T02:48:51.539Z,95794.1
2018-11-23T02:49:53.972Z,95792.8
2018-11-23T02:50:56.140Z,95799.5
2018-11-23T02:51:58.299Z,95799.7
2018-11-23T02:52:59.916Z,95804.4
2018-11-23T02:54:01.575Z,95803.7
2018-11-23T02:55:03.725Z,95806.7
2018-11-23T02:56:05.873Z,95809
2018-11-23T02:57:07.740Z,95809.6
2018-11-23T02:58:10.166Z,95810.3
2018-11-23T02:59:12.592Z,95806
2018-11-23T03:00:15.016Z,95808.7
2018-11-23T03:01:17.168Z,95806.3
2018-11-23T03:02:19.320Z,95809.5
2018-11-23T03:03:21.456Z,95807.6
2018-11-23T03:04:23.628Z,95801.6
2018-11-23T03:05:25.800Z,95808.4
2018-11-23T03:06:28.235Z,95808.1
2018-11-23T03:07:30.658Z,95809.6
2018-11-23T03:08:32.827Z,95812.6
2018-11-23T03:09:34.978Z,95810.4
2018-11-23T03:10:37.416Z,95809.5
2018-11-23T03:11:39.577Z,95809.5
2018-11-23T03:12:41.728Z,95808.9
2018-11-23T03:13:43.340Z,95806.4
2018-11-23T03:14:45.214Z,95811.5
2018-11-23T03:15:47.356Z,95814.8
2018-11-23T03:16:49.788Z,95814.7
2018-11-23T03:17:52.232Z,95817.5
2018-11-23T03:18:54.398Z,95815.6
2018-11-23T03:19:56.550Z,95816.8
2018-11-23T03:20:58.977Z,95816.2
2018-11-23T03:22:01.126Z,95815
2018-11-23T03:23:03.290Z,95812.4
2018-11-23T03:24:05.447Z,95813.7
2018-11-23T03:25:07.616Z,95813.1
2018-11-23T03:26:09.770Z,95812.3
2018-11-23T03:27:11.663Z,95812.1
2018-11-23T03:28:14.088Z,95812
2018-11-23T03:29:15.712Z,95813.9
2018-11-23T03:30:17.592Z,95813.1
2018-11-23T03:31:19.751Z,95808.7
2018-11-23T03:32:21.914Z,95811.1
2018-11-23T03:33:23.786Z,95814.9
2018-11-23T03:34:25.694Z,95813.7
2018-11-23T03:35:27.845Z,95812.9
2018-11-23T03:36:29.706Z,95815.6
2018-11-23T03:37:31.869Z,95814.1
2018-11-23T03:38:33.169Z,95814.5
2018-11-23T03:39:35.431Z,95820.1
2018-11-23T03:40:37.050Z,95817.7
2018-11-23T03:41:39.212Z,95819.3
2018-11-23T03:42:41.628Z,95821
2018-11-23T03:43:43.796Z,95818.4
2018-11-23T03:44:45.663Z,95815.7
2018-11-23T03:45:48.083Z,95820.1
2018-11-23T03:46:50.499Z,95817
2018-11-23T03:47:52.675Z,95817.1
2018-11-23T03:48:54.511Z,95817.2
2018-11-23T03:49:56.666Z,95811.1
2018-11-23T03:50:58.817Z,95814
2018-11-23T03:52:01.254Z,95813
2018-11-23T03:53:03.429Z,95816.1
2018-11-23T03:54:05.590Z,95812.3
2018-11-23T03:55:07.755Z,95813.8
2018-11-23T03:56:10.218Z,95809.1
2018-11-23T03:57:12.361Z,95810.7
2018-11-23T03:58:14.795Z,95814
2018-11-23T03:59:17.229Z,95815.5
2018-11-23T04:00:19.650Z,95813.6
2018-11-23T04:01:22.067Z,95814.7
2018-11-23T04:02:23.980Z,95813.2
2018-11-23T04:03:26.397Z,95810.4
2018-11-23T04:04:28.276Z,95812.7
2018-11-23T04:05:30.431Z,95808
2018-11-23T04:06:32.607Z,95809.1
2018-11-23T04:07:34.485Z,95803
2018-11-23T04:08:36.637Z,95800.8
2018-11-23T04:09:39.061Z,95803.4
2018-11-23T04:10:41.489Z,95804.5
2018-11-23T04:11:43.907Z,95801.6
2018-11-23T04:12:46.072Z,95802.4
2018-11-23T04:13:48.507Z,95801.6
2018-11-23T04:14:50.693Z,95803.7
2018-11-23T04:15:53.121Z,95801
2018-11-23T04:16:55.550Z,95801.3
2018-11-23T04:17:57.705Z,95803.8
2018-11-23T04:19:00.139Z,95807
2018-11-23T04:20:02.563Z,95802.2
2018-11-23T04:21:04.203Z,95800.6
2018-11-23T04:22:06.112Z,95804.5
2018-11-23T04:23:08.539Z,95805
2018-11-23T04:24:10.959Z,95809.9
2018-11-23T04:25:13.402Z,95809.7
2018-11-23T04:26:14.982Z,95814.8
2018-11-23T04:27:16.865Z,95815
2018-11-23T04:28:18.996Z,95821.8
2018-11-23T04:29:21.131Z,95817.2
2018-11-23T04:30:23.285Z,95816.6
2018-11-23T04:31:25.438Z,95815.4
2018-11-23T04:32:27.576Z,95817.9
2018-11-23T04:33:29.431Z,95818.4
2018-11-23T04:34:31.861Z,95815.1
2018-11-23T04:35:34.295Z,95818.7
2018-11-23T04:36:36.459Z,95818.4
2018-11-23T04:37:37.823Z,95818.8
2018-11-23T04:38:40.256Z,95817.8
2018-11-23T04:39:41.882Z,95827.4
2018-11-23T04:40:44.059Z,95829.3
2018-11-23T04:41:47.728Z,95836.6
2018-11-23T04:42:49.338Z,95837
2018-11-23T04:43:51.765Z,95835.9
2018-11-23T04:44:54.206Z,95838.4
2018-11-23T04:45:56.373Z,95837.2
2018-11-23T04:46:58.535Z,95842.3
2018-11-23T04:48:00.967Z,95843.4
2018-11-23T04:49:03.383Z,95841.8
2018-11-23T04:50:05.816Z,95844.3
2018-11-23T04:51:07.677Z,95845.8
2018-11-23T04:52:09.827Z,95849.5
2018-11-23T04:53:12.249Z,95850.2
2018-11-23T04:54:14.414Z,95844.2
2018-11-23T04:55:16.276Z,95847.1
2018-11-23T04:56:18.710Z,95845.1
2018-11-23T04:57:20.853Z,95846.8
2018-11-23T04:58:23.285Z,95847
2018-11-23T04:59:25.447Z,95839.7
2018-11-23T05:00:27.598Z,95839.9
2018-11-23T05:01:30.021Z,95838.5
2018-11-23T05:02:32.181Z,95836.3
2018-11-23T05:03:34.336Z,95843.2
2018-11-23T05:04:36.764Z,95841.2
2018-11-23T05:05:38.909Z,95839.9
2018-11-23T05:06:41.049Z,95841.9
2018-11-23T05:07:43.200Z,95845.7
2018-11-23T05:08:45.359Z,95841.4
2018-11-23T05:09:47.521Z,95844.5
2018-11-23T05:10:49.678Z,95842.1
2018-11-23T05:11:52.099Z,95839
2018-11-23T05:12:53.969Z,95836.6
2018-11-23T05:13:56.391Z,95834.9
2018-11-23T05:14:58.819Z,95835
2018-11-23T05:16:00.979Z,95830.9
2018-11-23T05:17:03.129Z,95833
2018-11-23T05:18:04.730Z,95833.6
2018-11-23T05:19:06.869Z,95832.1
2018-11-23T05:20:09.035Z,95830.5
2018-11-23T05:21:11.187Z,95832.8
2018-11-23T05:22:13.347Z,95836.6
2018-11-23T05:23:15.515Z,95833.3
2018-11-23T05:24:17.935Z,95835
2018-11-23T05:25:19.797Z,95831.5
2018-11-23T05:26:21.984Z,95836.8
2018-11-23T05:27:24.418Z,95833.7
2018-11-23T05:28:26.575Z,95834
2018-11-23T05:29:29.007Z,95837
2018-11-23T05:30:31.428Z,95838.3
2018-11-23T05:31:33.849Z,95842.5
2018-11-23T05:32:35.705Z,95846.1
2018-11-23T05:33:37.583Z,95846.2
2018-11-23T05:34:39.731Z,95841.6
2018-11-23T05:35:41.309Z,95837.1
2018-11-23T05:36:43.460Z,95839.6
2018-11-23T05:37:45.889Z,95845.1
2018-11-23T05:38:48.322Z,95839.2
2018-11-23T05:39:50.790Z,95839.9
2018-11-23T05:40:52.677Z,95838.5
2018-11-23T05:41:54.527Z,95839.7
2018-11-23T05:42:56.946Z,95838.3
2018-11-23T05:44:03.618Z,95834.7
2018-11-23T05:45:05.775Z,95832.8
2018-11-23T05:46:07.939Z,95830.5
2018-11-23T05:47:09.811Z,95827.2
2018-11-23T05:48:11.972Z,95828.2
2018-11-23T05:49:14.143Z,95825.3
2018-11-23T05:50:16.567Z,95825.3
2018-11-23T05:51:18.983Z,95824.6
2018-11-23T05:52:20.582Z,95829.8
2018-11-23T05:53:22.432Z,95830.5
2018-11-23T05:54:24.601Z,95824.1
2018-11-23T05:55:26.749Z,95825.6
2018-11-23T05:56:28.907Z,95829.5
2018-11-23T05:57:30.483Z,95826.5
2018-11-23T05:58:32.631Z,95826.2
2018-11-23T05:59:35.059Z,95825.7
2018-11-23T06:00:37.489Z,95828.7
2018-11-23T06:01:39.641Z,95826.5
2018-11-23T06:02:41.790Z,95827.3
2018-11-23T06:03:43.387Z,95823.9
2018-11-23T06:04:45.804Z,95821.9
2018-11-23T06:05:47.946Z,95817.5
2018-11-23T06:06:49.832Z,95819.2
2018-11-23T06:07:52.267Z,95821.6
2018-11-23T06:08:54.156Z,95823.6
2018-11-23T06:09:56.049Z,95824.5
2018-11-23T06:10:58.211Z,95824.2
2018-11-23T06:12:00.092Z,95821.4
2018-11-23T06:13:02.256Z,95823.4
2018-11-23T06:14:04.679Z,95823
2018-11-23T06:15:06.549Z,95822.7
2018-11-23T06:16:08.731Z,95821.6
2018-11-23T06:17:10.871Z,95825.9
2018-11-23T06:18:13.000Z,95826.3
2018-11-23T06:19:15.173Z,95830.5
2018-11-23T06:20:17.609Z,95825.8
2018-11-23T06:21:20.022Z,95828.3
2018-11-23T06:22:21.885Z,95823.9
2018-11-23T06:23:23.750Z,95825.5
2018-11-23T06:25:31.167Z,95821.3
2018-11-23T06:26:33.192Z,95820.8
2018-11-23T06:27:35.630Z,95816.8
2018-11-23T06:28:37.509Z,95818
2018-11-23T06:29:39.662Z,95815.7
2018-11-23T06:30:41.787Z,95814.4
2018-11-23T06:31:43.940Z,95814.7
2018-11-23T06:32:46.077Z,95815.5
2018-11-23T06:33:47.664Z,95819.3
2018-11-23T06:34:49.809Z,95821.9
2018-11-23T06:35:52.239Z,95823.2
2018-11-23T06:36:54.676Z,95824.8
2018-11-23T06:37:56.557Z,95823.6
2018-11-23T06:38:58.989Z,95824.2
2018-11-23T06:40:01.144Z,95823.2
2018-11-23T06:41:10.083Z,95818.7
2018-11-23T06:42:10.687Z,95821.4
2018-11-23T06:43:12.901Z,95814.6
2018-11-23T06:44:15.119Z,95815.8
2018-11-23T06:45:17.611Z,95807.7
2018-11-23T06:46:19.501Z,95809
2018-11-23T06:47:21.643Z,95810.8
2018-11-23T06:48:23.233Z,95812.5
2018-11-23T06:49:24.830Z,95815.1
2018-11-23T06:50:26.976Z,95817.3
2018-11-23T06:51:28.855Z,95820.2
2018-11-23T06:52:30.477Z,95816.9
2018-11-23T06:53:32.897Z,95813.9
2018-11-23T06:54:35.059Z,95815.7
2018-11-23T06:55:36.950Z,95815.4
2018-11-23T06:56:38.819Z,95817.1
2018-11-23T06:57:40.971Z,95821.9
2018-11-23T06:58:42.852Z,95822.6
2018-11-23T06:59:45.039Z,95822.3
2018-11-23T07:00:47.491Z,95828.7
2018-11-23T07:01:49.926Z,95827.7
2018-11-23T07:02:58.872Z,95832.8
2018-11-23T07:03:58.576Z,95837.5
2018-11-23T07:05:01.037Z,95842.5
2018-11-23T07:06:02.941Z,95843.8
2018-11-23T07:07:05.095Z,95844.1
2018-11-23T07:08:07.511Z,95840.7
2018-11-23T07:09:09.679Z,95848.4
2018-11-23T07:10:11.819Z,95846
2018-11-23T07:11:13.982Z,95845.8
2018-11-23T07:12:15.840Z,95845.4
2018-11-23T07:13:18.294Z,95843.1
2018-11-23T07:14:20.723Z,95845.6
2018-11-23T07:15:23.148Z,95844.6
2018-11-23T07:16:25.586Z,95847.4
2018-11-23T07:17:27.747Z,95847.8
2018-11-23T07:18:29.897Z,95844.7
2018-11-23T07:19:31.773Z,95844.6
2018-11-23T07:20:33.348Z,95840.1
2018-11-23T07:21:35.510Z,95843.3
2018-11-23T07:22:37.951Z,95843.1
2018-11-23T07:23:40.380Z,95843.3
2018-11-23T07:24:42.539Z,95838.9
2018-11-23T07:25:44.173Z,95838.3
2018-11-23T07:26:46.338Z,95842.1
2018-11-23T07:27:48.772Z,95841
2018-11-23T07:28:50.934Z,95839.8
2018-11-23T07:29:53.065Z,95838
2018-11-23T07:30:58.404Z,95841.3
2018-11-23T07:32:01.084Z,95841.2
2018-11-23T07:33:03.506Z,95839.5
2018-11-23T07:34:05.938Z,95835.1
2018-11-23T07:35:08.427Z,95842
2018-11-23T07:36:10.297Z,95840.1
2018-11-23T07:37:12.489Z,95842.3
2018-11-23T07:38:14.371Z,95845.6
2018-11-23T07:39:16.808Z,95847.6
2018-11-23T07:40:18.970Z,95843.2
2018-11-23T07:41:21.415Z,95842.3
2018-11-23T07:42:23.867Z,95847.3
2018-11-23T07:43:26.029Z,95849.9
2018-11-23T07:44:28.463Z,95847.1
2018-11-23T07:45:30.891Z,95847.7
2018-11-23T07:46:33.053Z,95849.9
2018-11-23T07:47:34.912Z,95847.5
2018-11-23T07:48:36.822Z,95849.7
2018-11-23T07:49:38.709Z,95850.7
2018-11-23T07:50:41.132Z,95849.5
2018-11-23T07:51:43.568Z,95850.3
2018-11-23T07:52:45.726Z,95852.2
2018-11-23T07:53:47.632Z,95849
2018-11-23T07:54:49.775Z,95844.5
2018-11-23T07:55:52.199Z,95849.1
2018-11-23T07:56:54.636Z,95843.8
2018-11-23T07:57:56.515Z,95843.1
2018-11-23T07:58:58.663Z,95843.8
2018-11-23T08:00:00.565Z,95843.8
2018-11-23T08:01:02.469Z,95841.7
2018-11-23T08:02:04.633Z,95840.2
2018-11-23T08:03:06.506Z,95836.4
2018-11-23T08:04:08.950Z,95840.4
2018-11-23T08:05:11.377Z,95839.6
2018-11-23T08:06:13.806Z,95837.1
2018-11-23T08:07:16.243Z,95838.5
2018-11-23T08:08:18.668Z,95835.8
2018-11-23T08:09:20.820Z,95838.2
2018-11-23T08:10:22.973Z,95839.1
2018-11-23T08:11:25.119Z,95840.6
2018-11-23T08:12:27.563Z,95834.8
2018-11-23T08:13:29.983Z,95834.9
2018-11-23T08:14:31.843Z,95831.2
2018-11-23T08:15:33.977Z,95824.7
2018-11-23T08:16:36.155Z,95822.2
2018-11-23T08:17:38.591Z,95820.2
2018-11-23T08:18:40.518Z,95817.1
2018-11-23T08:20:47.939Z,95812.2
2018-11-23T08:21:49.828Z,95819.3
2018-11-23T08:22:52.261Z,95819.3
2018-11-23T08:23:54.416Z,95818.4
2018-11-23T08:24:56.554Z,95826.6
2018-11-23T08:25:58.978Z,95825.3
2018-11-23T08:27:01.403Z,95825.9
2018-11-23T08:28:03.002Z,95827.5
2018-11-23T08:29:05.427Z,95828.7
2018-11-23T08:30:07.288Z,95824.8
2018-11-23T08:31:09.174Z,95827.6
2018-11-23T08:32:11.051Z,95823.5
2018-11-23T08:33:13.208Z,95823.8
2018-11-23T08:34:15.635Z,95824.4
2018-11-23T08:35:18.060Z,95826.4
2018-11-23T08:36:19.933Z,95825.5
2018-11-23T08:37:22.358Z,95827.2
2018-11-23T08:38:24.517Z,95827.1
2018-11-23T08:39:26.149Z,95826.1
2018-11-23T08:40:28.302Z,95825
2018-11-23T08:41:30.445Z,95826.1
2018-11-23T08:42:32.339Z,95820.6
2018-11-23T08:43:33.939Z,95822.2
2018-11-23T08:44:36.366Z,95824.6
2018-11-23T08:45:38.528Z,95826.1
2018-11-23T08:46:40.409Z,95825.3
2018-11-23T08:47:42.838Z,95827.5
2018-11-23T08:48:44.688Z,95828.6
2018-11-23T08:49:47.108Z,95828.5
2018-11-23T08:50:49.541Z,95829.6
2018-11-23T08:51:51.409Z,95826.4
2018-11-23T08:52:53.580Z,95826.7
2018-11-23T08:53:56.035Z,95825.3
2018-11-23T08:54:58.187Z,95819.2
2018-11-23T08:56:00.102Z,95823.8
2018-11-23T08:57:02.539Z,95821.9
2018-11-23T08:58:04.448Z,95819.3
2018-11-23T08:59:06.040Z,95820.4
2018-11-23T09:00:08.475Z,95817.4
2018-11-23T09:01:10.617Z,95814.2
2018-11-23T09:02:12.780Z,95817.5
2018-11-23T09:03:14.649Z,95814.1
2018-11-23T09:04:16.550Z,95807.5
2018-11-23T09:05:18.725Z,95810.8
2018-11-23T09:06:21.158Z,95810.6
2018-11-23T09:07:23.588Z,95802
2018-11-23T09:08:26.014Z,95809
2018-11-23T09:09:28.440Z,95804.4
2018-11-23T09:10:30.300Z,95809.5
2018-11-23T09:11:32.189Z,95812.1
2018-11-23T09:12:34.343Z,95812.5
2018-11-23T09:13:36.486Z,95810.1
2018-11-23T09:14:38.917Z,95814.8
2018-11-23T09:15:41.341Z,95819.1
2018-11-23T09:16:43.198Z,95819.1
2018-11-23T09:17:45.353Z,95816.5
2018-11-23T09:18:47.268Z,95822.5
2018-11-23T09:19:49.148Z,95821.5
2018-11-23T09:20:51.582Z,95827
2018-11-23T09:21:53.753Z,95831.3
2018-11-23T09:22:56.180Z,95830.1
2018-11-23T09:23:58.416Z,95829.7
2018-11-23T09:25:00.659Z,95830.1
2018-11-23T09:26:01.996Z,95832.1
2018-11-23T09:27:04.428Z,95827.7
2018-11-23T09:28:06.580Z,95824.8
2018-11-23T09:29:08.993Z,95830.3
2018-11-23T09:30:10.886Z,95820.6
2018-11-23T09:31:13.318Z,95822.6
2018-11-23T09:32:15.759Z,95822.7
2018-11-23T09:33:17.907Z,95816.8
2018-11-23T09:34:20.348Z,95810.9
2018-11-23T09:35:22.775Z,95811.3
2018-11-23T09:36:24.926Z,95809.2
2018-11-23T09:37:27.069Z,95810.5
2018-11-23T09:38:29.231Z,95809.9
2018-11-23T09:39:31.424Z,95807
2018-11-23T09:40:33.301Z,95804.4
2018-11-23T09:41:35.723Z,95803
2018-11-23T09:42:38.148Z,95794.4
2018-11-23T09:43:40.718Z,95794.4
2018-11-23T09:44:43.143Z,95792.6
2018-11-23T09:45:45.573Z,95789.7
2018-11-23T09:46:47.153Z,95789.1
2018-11-23T09:47:49.298Z,95796.3
2018-11-23T09:48:51.207Z,95795.1
2018-11-23T09:49:53.629Z,95798.3
2018-11-23T09:50:56.047Z,95789
2018-11-23T09:51:57.928Z,95791.5
2018-11-23T09:52:59.816Z,95793
2018-11-23T09:54:02.241Z,95792.8
2018-11-23T09:55:04.106Z,95795.2
2018-11-23T09:56:06.258Z,95792.8
2018-11-23T09:57:08.715Z,95798.1
2018-11-23T09:58:11.140Z,95790.3
2018-11-23T09:59:13.298Z,95797
2018-11-23T10:00:15.197Z,95786.4
2018-11-23T10:01:17.359Z,95782.2
2018-11-23T10:02:19.784Z,95781
2018-11-23T10:03:21.407Z,95781
2018-11-23T10:04:23.560Z,95783.4
2018-11-23T10:05:25.974Z,95780.1
2018-11-23T10:06:28.397Z,95778
2018-11-23T10:07:30.558Z,95770.1
2018-11-23T10:09:37.989Z,95768.8
2018-11-23T10:10:40.138Z,95770.5
2018-11-23T10:11:42.287Z,95768.9
2018-11-23T10:12:44.447Z,95766.4
2018-11-23T10:13:46.595Z,95764.2
2018-11-23T10:14:48.747Z,95758.8
2018-11-23T10:15:51.184Z,95754.4
2018-11-23T10:16:53.332Z,95751.2
2018-11-23T10:17:55.764Z,95750.3
2018-11-23T10:18:57.951Z,95747.5
2018-11-23T10:20:00.122Z,95747.9
2018-11-23T10:21:02.011Z,95742.4
2018-11-23T10:22:04.161Z,95739.4
2018-11-23T10:23:06.631Z,95741.7
2018-11-23T10:24:08.846Z,95743.3
2018-11-23T10:25:10.998Z,95745
2018-11-23T10:26:13.174Z,95745
2018-11-23T10:27:14.764Z,95744
2018-11-23T10:28:17.202Z,95740.3
2018-11-23T10:29:19.349Z,95741.2
2018-11-23T10:30:21.218Z,95739.6
2018-11-23T10:31:23.639Z,95735.5
2018-11-23T10:32:25.549Z,95738.4
2018-11-23T10:33:29.636Z,95730.5
2018-11-23T10:34:32.066Z,95724.3
2018-11-23T10:35:34.028Z,95721.8
2018-11-23T10:36:36.168Z,95720.5
2018-11-23T10:37:38.592Z,95718.6
2018-11-23T10:38:40.476Z,95719.5
2018-11-23T10:39:42.907Z,95720.2
2018-11-23T10:40:45.060Z,95715.1
2018-11-23T10:41:47.241Z,95712.9
2018-11-23T10:42:49.135Z,95713
2018-11-23T10:43:51.020Z,95713.5
2018-11-23T10:44:52.936Z,95712.3
2018-11-23T10:45:55.086Z,95705.5
2018-11-23T10:46:56.953Z,95704.6
2018-11-23T10:47:59.368Z,95703
2018-11-23T10:49:01.239Z,95701.4
2018-11-23T10:50:03.663Z,95704.8
2018-11-23T10:51:05.856Z,95700.2
2018-11-23T10:52:08.295Z,95699.4
2018-11-23T10:53:10.728Z,95698.1
2018-11-23T10:54:13.171Z,95704.6
2018-11-23T10:55:15.608Z,95702.6
2018-11-23T10:56:18.037Z,95698.6
2018-11-23T10:57:20.469Z,95700.3
2018-11-23T10:58:22.624Z,95692.7
2018-11-23T10:59:25.058Z,95696.8
2018-11-23T11:00:27.221Z,95696.2
2018-11-23T11:01:29.074Z,95692.8
2018-11-23T11:02:31.248Z,95690
2018-11-23T11:03:33.691Z,95689.1
2018-11-23T11:04:35.837Z,95689.7
2018-11-23T11:05:37.994Z,95688.3
2018-11-23T11:06:40.419Z,95683.3
2018-11-23T11:07:42.844Z,95686
2018-11-23T11:08:44.998Z,95681.3
2018-11-23T11:09:47.134Z,95682.1
2018-11-23T11:10:49.196Z,95681.8
2018-11-23T11:11:51.653Z,95680.9
2018-11-23T11:12:54.078Z,95683.3
2018-11-23T11:13:56.522Z,95681
2018-11-23T11:14:57.831Z,95679.9
2018-11-23T11:16:00.258Z,95674.1
2018-11-23T11:17:02.141Z,95675.7
2018-11-23T11:18:04.564Z,95673.1
2018-11-23T11:19:06.432Z,95675.7
2018-11-23T11:20:08.319Z,95673.1
2018-11-23T11:21:10.481Z,95675.4
2018-11-23T11:22:12.635Z,95675.1
2018-11-23T11:23:15.066Z,95670.4
2018-11-23T11:24:16.950Z,95676.7
2018-11-23T11:25:19.106Z,95673.9
2018-11-23T11:26:21.540Z,95672.7
2018-11-23T11:27:23.690Z,95669.6
2018-11-23T11:28:25.870Z,95663.2
2018-11-23T11:29:28.025Z,95662.7
2018-11-23T11:30:30.445Z,95659.3
2018-11-23T11:31:32.869Z,95661.5
2018-11-23T11:32:35.310Z,95656.3
2018-11-23T11:33:37.495Z,95652.4
2018-11-23T11:34:39.931Z,95659.8
2018-11-23T11:35:42.085Z,95662.5
2018-11-23T11:36:44.257Z,95663.2
2018-11-23T11:37:46.126Z,95665.1
2018-11-23T11:38:48.286Z,95663.9
2018-11-23T11:39:50.718Z,95663.1
2018-11-23T11:40:52.877Z,95661.3
2018-11-23T11:41:55.048Z,95662.6
2018-11-23T11:42:56.929Z,95662.3
2018-11-23T11:43:59.360Z,95664.9
2018-11-23T11:45:01.528Z,95667.2
2018-11-23T11:46:03.396Z,95666.2
2018-11-23T11:47:05.538Z,95661.4
2018-11-23T11:48:07.965Z,95665.1
2018-11-23T11:49:10.104Z,95659.5
2018-11-23T11:50:12.555Z,95658.6
2018-11-23T11:52:21.452Z,95651.3
2018-11-23T11:53:23.319Z,95650.2
2018-11-23T11:54:25.476Z,95648.1
2018-11-23T11:55:27.628Z,95640.8
2018-11-23T11:56:30.062Z,95636.5
2018-11-23T11:57:32.189Z,95635.7
2018-11-23T11:58:34.353Z,95634.6
2018-11-23T11:59:36.221Z,95629.8
2018-11-23T12:00:38.401Z,95630.8
2018-11-23T12:01:40.815Z,95629.8
2018-11-23T12:02:42.959Z,95627
2018-11-23T12:03:45.112Z,95623.6
2018-11-23T12:04:47.539Z,95622.7
2018-11-23T12:05:49.429Z,95622.6
2018-11-23T12:06:51.861Z,95623
2018-11-23T12:07:53.728Z,95626.3
2018-11-23T12:08:56.156Z,95620
2018-11-23T12:09:58.319Z,95622.3
2018-11-23T12:11:00.475Z,95622.5
2018-11-23T12:12:02.630Z,95621.4
2018-11-23T12:13:04.804Z,95622.9
2018-11-23T12:14:07.227Z,95614.3
2018-11-23T12:15:09.355Z,95611.5
2018-11-23T12:16:10.805Z,95610.4
2018-11-23T12:17:12.972Z,95607.6
2018-11-23T12:18:15.129Z,95603.9
2018-11-23T12:19:17.032Z,95602.9
2018-11-23T12:20:19.157Z,95602.4
2018-11-23T12:21:21.603Z,95598.4
2018-11-23T12:22:24.032Z,95598.1
2018-11-23T12:23:25.908Z,95596.3
2018-11-23T12:24:28.346Z,95594.6
2018-11-23T12:25:29.978Z,95591.9
2018-11-23T12:26:31.862Z,95592
2018-11-23T12:27:33.745Z,95585.4
2018-11-23T12:28:35.909Z,95584.9
2018-11-23T12:29:37.808Z,95578.6
2018-11-23T12:30:39.965Z,95580.1
2018-11-23T12:31:42.108Z,95576.3
2018-11-23T12:32:44.209Z,95575.9
2018-11-23T12:33:46.249Z,95568.8
2018-11-23T12:34:48.679Z,95571.6
2018-11-23T12:35:50.574Z,95567.7
2018-11-23T12:36:53.463Z,95566.2
2018-11-23T12:37:55.365Z,95565.5
2018-11-23T12:38:57.826Z,95563.9
2018-11-23T12:39:59.998Z,95562.8
2018-11-23T12:41:02.431Z,95555.9
2018-11-23T12:42:04.020Z,95557.1